Time;durP1;ratioP1;P1;durP2;ratioP2;P2;SDS_P1;SDS_P2;PMS_P1;PMS_P2;Temp;Humidity;BMP_temperature;BMP_pressure;BME280_temperature;BME280_humidity;BME280_pressure;Samples;Min_cycle;Max_cycle;Signal;HPM_P1;HPM_P2
2022/07/25 00:00:05;;;;;;;1.85;1.45;;;18.00;99.90;;;;;;5078163;28;20043;-73
2022/07/25 00:02:31;;;;;;;3.38;1.02;;;17.90;99.90;;;;;;5096332;28;20424;-73
2022/07/25 00:04:57;;;;;;;4.47;2.05;;;17.80;99.90;;;;;;5096040;28;20522;-73
2022/07/25 00:07:22;;;;;;;1.73;1.20;;;17.70;99.90;;;;;;5077714;28;20032;-73
2022/07/25 00:09:48;;;;;;;1.80;1.60;;;17.70;99.90;;;;;;5096010;28;20042;-73
2022/07/25 00:12:14;;;;;;;0.82;0.82;;;17.70;99.90;;;;;;5096354;28;20486;-73
2022/07/25 00:14:39;;;;;;;1.65;1.33;;;17.60;99.90;;;;;;5095074;28;20539;-74
2022/07/25 00:17:05;;;;;;;2.28;2.05;;;17.60;99.90;;;;;;5096047;28;20421;-73
2022/07/25 00:19:31;;;;;;;1.02;1.02;;;17.60;99.90;;;;;;5095962;28;20054;-73
2022/07/25 00:21:57;;;;;;;3.08;2.17;;;17.60;99.90;;;;;;5095893;28;20008;-73
2022/07/25 00:24:23;;;;;;;4.00;1.90;;;17.60;99.90;;;;;;5095747;28;20024;-73
2022/07/25 00:26:48;;;;;;;11.63;3.33;;;17.70;99.90;;;;;;5095580;28;20028;-73
2022/07/25 00:29:14;;;;;;;1.58;1.45;;;17.70;99.90;;;;;;5077468;28;20114;-74
2022/07/25 00:31:40;;;;;;;1.50;1.40;;;17.70;99.90;;;;;;5095620;28;20020;-74
2022/07/25 00:34:06;;;;;;;1.17;1.17;;;17.60;99.90;;;;;;5077430;28;20024;-73
2022/07/25 00:36:31;;;;;;;3.00;0.80;;;17.50;99.90;;;;;;5095668;28;20024;-76
2022/07/25 00:38:57;;;;;;;3.58;1.88;;;17.40;99.90;;;;;;5095860;28;20025;-76
2022/07/25 00:41:23;;;;;;;2.20;1.88;;;17.40;99.90;;;;;;5095751;28;20423;-76
2022/07/25 00:43:48;;;;;;;1.65;1.48;;;17.40;99.90;;;;;;5095307;28;20024;-75
2022/07/25 00:46:16;;;;;;;4.18;2.08;;;17.50;99.90;;;;;;5095388;28;20395;-73
2022/07/25 00:48:43;;;;;;;1.20;1.10;;;17.40;99.90;;;;;;5095123;28;20036;-73
2022/07/25 00:51:09;;;;;;;4.13;1.83;;;17.40;99.90;;;;;;5095420;28;20095;-73
2022/07/25 00:53:37;;;;;;;4.20;2.42;;;17.40;99.90;;;;;;5077105;28;20027;-76
2022/07/25 00:56:04;;;;;;;1.92;1.75;;;17.40;99.90;;;;;;5095166;28;20354;-76
2022/07/25 00:58:30;;;;;;;1.83;1.73;;;17.40;99.90;;;;;;5077112;28;20020;-77
2022/07/25 01:00:57;;;;;;;1.33;1.05;;;17.40;99.90;;;;;;5095148;28;20540;-76
2022/07/25 01:03:22;;;;;;;3.95;0.77;;;17.40;99.90;;;;;;5076702;28;20113;-75
2022/07/25 01:05:49;;;;;;;2.65;1.55;;;17.40;99.90;;;;;;5076864;28;20041;-73
2022/07/25 01:08:17;;;;;;;8.23;2.08;;;17.30;99.90;;;;;;5076601;28;20369;-73
2022/07/25 01:10:43;;;;;;;2.47;1.42;;;17.20;99.90;;;;;;5076683;28;20024;-74
2022/07/25 01:13:09;;;;;;;1.33;1.23;;;17.20;99.90;;;;;;5095144;28;20372;-73
2022/07/25 01:15:35;;;;;;;2.15;2.05;;;17.10;99.90;;;;;;5076640;28;20472;-74
2022/07/25 01:18:00;;;;;;;1.10;1.10;;;17.10;99.90;;;;;;5094956;28;20028;-73
2022/07/25 01:20:28;;;;;;;1.75;1.60;;;17.10;99.90;;;;;;5076551;28;20016;-75
2022/07/25 01:22:54;;;;;;;1.10;1.10;;;17.10;99.90;;;;;;5094531;28;20031;-78
2022/07/25 01:25:20;;;;;;;2.80;1.92;;;17.20;99.90;;;;;;5094597;28;20020;-75
2022/07/25 01:27:46;;;;;;;3.83;1.45;;;17.10;99.90;;;;;;5094291;28;20039;-73
2022/07/25 01:30:14;;;;;;;2.13;1.98;;;17.10;99.90;;;;;;5094634;28;20020;-73
2022/07/25 01:32:41;;;;;;;1.58;1.30;;;17.00;99.90;;;;;;5094551;28;20031;-73
2022/07/25 01:35:08;;;;;;;1.45;1.35;;;17.00;99.90;;;;;;5094534;28;20073;-76
2022/07/25 01:37:34;;;;;;;3.80;1.98;;;17.00;99.90;;;;;;5094442;28;20101;-77
2022/07/25 01:40:01;;;;;;;1.33;1.13;;;17.00;99.90;;;;;;5094280;28;20469;-75
2022/07/25 01:42:27;;;;;;;1.27;1.17;;;17.00;99.90;;;;;;5094014;28;20488;-75
2022/07/25 01:44:53;;;;;;;1.70;1.33;;;16.90;99.90;;;;;;5094232;28;20028;-75
2022/07/25 01:47:19;;;;;;;0.90;0.90;;;16.90;99.90;;;;;;5075975;28;20136;-76
2022/07/25 01:49:45;;;;;;;2.65;2.42;;;16.90;99.90;;;;;;5076063;28;20472;-76
2022/07/25 01:52:12;;;;;;;1.48;1.33;;;16.60;99.90;;;;;;5094245;28;20023;-76
2022/07/25 01:54:37;;;;;;;1.90;1.80;;;16.60;99.90;;;;;;5093971;28;20043;-76
2022/07/25 01:57:04;;;;;;;1.65;1.40;;;16.50;99.90;;;;;;5093761;28;20039;-76
2022/07/25 01:59:30;;;;;;;2.08;1.80;;;16.50;99.90;;;;;;5094083;28;20028;-75
2022/07/25 02:01:56;;;;;;;2.78;1.63;;;16.50;99.90;;;;;;5075657;28;20020;-76
2022/07/25 02:04:22;;;;;;;2.00;1.90;;;16.50;99.90;;;;;;5093793;28;20016;-75
2022/07/25 02:06:48;;;;;;;1.27;1.20;;;16.50;99.90;;;;;;5076657;28;20020;-76
2022/07/25 02:09:14;;;;;;;4.15;1.90;;;16.40;99.90;;;;;;5075421;28;20111;-77
2022/07/25 02:11:39;;;;;;;6.53;1.88;;;16.40;99.90;;;;;;5093957;28;20107;-78
2022/07/25 02:14:05;;;;;;;4.47;1.88;;;16.40;99.90;;;;;;5093862;28;20388;-75
2022/07/25 02:16:31;;;;;;;2.20;1.40;;;16.40;99.90;;;;;;5075635;28;20027;-76
2022/07/25 02:18:57;;;;;;;1.30;1.20;;;16.40;99.90;;;;;;5075458;28;20441;-75
2022/07/25 02:21:22;;;;;;;2.38;1.20;;;16.40;99.90;;;;;;5075562;28;20479;-75
2022/07/25 02:23:48;;;;;;;1.83;1.70;;;16.40;99.90;;;;;;5075325;28;20093;-75
2022/07/25 02:26:14;;;;;;;1.27;1.27;;;16.30;99.90;;;;;;5093554;28;20031;-75
2022/07/25 02:28:40;;;;;;;3.00;2.00;;;16.30;99.90;;;;;;5093420;28;20031;-75
2022/07/25 02:31:06;;;;;;;19.10;2.40;;;16.20;99.90;;;;;;5093750;28;20055;-74
2022/07/25 02:33:32;;;;;;;3.33;1.98;;;16.20;99.90;;;;;;5093823;28;20024;-74
2022/07/25 02:35:57;;;;;;;1.48;1.27;;;16.20;99.90;;;;;;5093395;28;20076;-75
2022/07/25 02:38:23;;;;;;;1.25;1.15;;;16.20;99.90;;;;;;5092848;28;20039;-74
2022/07/25 02:40:50;;;;;;;2.13;1.60;;;16.10;99.90;;;;;;5075061;28;20465;-75
2022/07/25 02:43:16;;;;;;;1.98;1.52;;;16.10;99.90;;;;;;5093289;28;20027;-76
2022/07/25 02:45:42;;;;;;;1.92;1.55;;;16.10;99.90;;;;;;5075299;28;20069;-75
2022/07/25 02:48:08;;;;;;;1.40;1.30;;;16.10;99.90;;;;;;5093134;28;20115;-75
2022/07/25 02:50:34;;;;;;;1.48;1.17;;;16.10;99.90;;;;;;5093646;28;20372;-75
2022/07/25 02:53:00;;;;;;;1.75;1.65;;;16.10;99.90;;;;;;5093392;28;20032;-75
2022/07/25 02:55:26;;;;;;;2.38;1.73;;;16.00;99.90;;;;;;5074879;28;20046;-75
2022/07/25 02:57:52;;;;;;;1.50;1.35;;;16.00;99.90;;;;;;5074848;28;20111;-75
2022/07/25 03:00:18;;;;;;;3.58;1.67;;;16.00;99.90;;;;;;5093013;28;20024;-75
2022/07/25 03:02:44;;;;;;;3.33;1.52;;;16.00;99.90;;;;;;5074833;28;20432;-75
2022/07/25 03:05:12;;;;;;;2.25;2.10;;;16.00;99.90;;;;;;5093094;28;20468;-75
2022/07/25 03:07:38;;;;;;;1.42;1.33;;;15.90;99.90;;;;;;5092925;28;20036;-76
2022/07/25 03:10:05;;;;;;;1.30;1.27;;;15.90;99.90;;;;;;5093346;28;20028;-76
2022/07/25 03:12:31;;;;;;;1.60;1.30;;;15.80;99.90;;;;;;5093155;28;20032;-75
2022/07/25 03:14:58;;;;;;;1.83;1.50;;;15.80;99.90;;;;;;5092969;28;20104;-75
2022/07/25 03:17:24;;;;;;;1.33;1.33;;;15.70;99.90;;;;;;5075141;28;20035;-75
2022/07/25 03:19:49;;;;;;;1.92;1.83;;;15.70;99.90;;;;;;5092740;28;20024;-75
2022/07/25 03:22:15;;;;;;;2.47;1.73;;;15.70;99.90;;;;;;5092898;28;20028;-75
2022/07/25 03:24:41;;;;;;;2.85;1.42;;;15.70;99.90;;;;;;5093040;28;20020;-75
2022/07/25 03:27:07;;;;;;;1.25;1.15;;;15.70;99.90;;;;;;5092851;28;20101;-75
2022/07/25 03:29:32;;;;;;;1.80;1.73;;;15.70;99.90;;;;;;5092983;28;20020;-75
2022/07/25 03:31:59;;;;;;;6.88;2.92;;;15.70;99.90;;;;;;5092723;28;20099;-75
2022/07/25 03:34:24;;;;;;;1.65;1.55;;;15.60;99.90;;;;;;5092923;28;20460;-75
2022/07/25 03:36:50;;;;;;;1.92;1.52;;;15.60;99.90;;;;;;5092648;28;20132;-75
2022/07/25 03:39:17;;;;;;;1.63;1.23;;;15.60;99.90;;;;;;5092777;28;20021;-75
2022/07/25 03:41:42;;;;;;;1.48;1.25;;;15.50;99.90;;;;;;5093021;28;20024;-75
2022/07/25 03:44:08;;;;;;;2.58;1.80;;;15.50;99.90;;;;;;5092923;28;20490;-76
2022/07/25 03:46:34;;;;;;;3.42;2.30;;;15.50;99.90;;;;;;5092865;28;20031;-75
2022/07/25 03:49:00;;;;;;;2.13;1.77;;;15.50;99.90;;;;;;5093002;28;20119;-75
2022/07/25 03:51:25;;;;;;;2.13;1.63;;;15.60;99.90;;;;;;5096539;28;20499;-75
2022/07/25 03:54:04;;;;;;;2.70;2.35;;;15.60;99.90;;;;;;5096175;28;20023;-75
2022/07/25 03:56:41;;;;;;;2.17;2.03;;;15.50;99.90;;;;;;5078093;28;20107;-75
2022/07/25 03:59:08;;;;;;;2.10;1.88;;;15.40;99.90;;;;;;5096334;28;20376;-75
2022/07/25 04:01:34;;;;;;;1.48;1.38;;;15.40;99.90;;;;;;5096170;28;20032;-76
2022/07/25 04:04:01;;;;;;;1.65;1.55;;;15.40;99.90;;;;;;5096310;28;20407;-76
2022/07/25 04:06:26;;;;;;;1.35;1.35;;;15.40;99.90;;;;;;5096264;28;20027;-76
2022/07/25 04:08:53;;;;;;;4.15;1.52;;;15.40;99.90;;;;;;5095959;28;20115;-75
2022/07/25 04:11:19;;;;;;;1.27;1.27;;;15.40;99.90;;;;;;5096067;28;20040;-75
2022/07/25 04:13:45;;;;;;;2.67;1.25;;;15.60;99.90;;;;;;5077627;28;20118;-75
2022/07/25 04:16:11;;;;;;;3.53;2.05;;;15.60;99.90;;;;;;5096739;28;20052;-75
2022/07/25 04:18:37;;;;;;;3.45;1.42;;;15.60;99.90;;;;;;5096433;28;20070;-75
2022/07/25 04:21:04;;;;;;;1.75;1.52;;;15.70;99.90;;;;;;5095966;28;20034;-75
2022/07/25 04:23:30;;;;;;;2.20;2.00;;;15.70;99.90;;;;;;5095924;28;20477;-75
2022/07/25 04:25:56;;;;;;;2.67;1.38;;;15.70;99.90;;;;;;5077569;28;20605;-75
2022/07/25 04:28:23;;;;;;;2.40;1.77;;;15.70;99.90;;;;;;5095673;28;20119;-76
2022/07/25 04:30:49;;;;;;;2.08;1.23;;;15.80;99.90;;;;;;5095641;28;20016;-75
2022/07/25 04:33:15;;;;;;;2.33;2.13;;;15.80;99.90;;;;;;5095535;28;20035;-75
2022/07/25 04:35:41;;;;;;;1.48;1.30;;;15.80;99.90;;;;;;5077418;28;20148;-75
2022/07/25 04:38:06;;;;;;;1.23;1.23;;;15.80;99.90;;;;;;5095713;28;20511;-75
2022/07/25 04:40:32;;;;;;;8.65;1.77;;;16.00;99.90;;;;;;5077452;28;20025;-75
2022/07/25 04:42:58;;;;;;;1.75;1.33;;;16.20;99.90;;;;;;5095721;28;20066;-75
2022/07/25 04:45:23;;;;;;;1.25;1.20;;;16.60;99.90;;;;;;5077542;28;20028;-75
2022/07/25 04:47:49;;;;;;;0.95;0.95;;;16.90;99.90;;;;;;5095249;28;20038;-76
2022/07/25 04:50:15;;;;;;;1.65;1.55;;;17.20;99.90;;;;;;5077247;28;20024;-75
2022/07/25 04:52:41;;;;;;;6.63;3.53;;;17.10;99.90;;;;;;5095157;28;20154;-76
2022/07/25 04:55:07;;;;;;;5.53;1.88;;;17.20;99.90;;;;;;5095253;28;20048;-72
2022/07/25 04:57:33;;;;;;;2.03;1.92;;;17.30;99.90;;;;;;5077046;28;20028;-73
2022/07/25 04:59:59;;;;;;;0.93;0.93;;;17.20;99.90;;;;;;5094879;28;20030;-74
2022/07/25 05:02:25;;;;;;;3.40;2.17;;;17.20;99.90;;;;;;5077059;28;20456;-72
2022/07/25 05:04:51;;;;;;;1.75;1.63;;;17.10;99.90;;;;;;5076872;28;20484;-73
2022/07/25 05:07:17;;;;;;;2.15;1.30;;;17.10;99.90;;;;;;5094938;28;20114;-73
2022/07/25 05:09:43;;;;;;;9.07;1.58;;;17.10;99.90;;;;;;5076792;28;20484;-77
2022/07/25 05:12:08;;;;;;;0.63;0.63;;;17.20;99.90;;;;;;5094804;28;20024;-76
2022/07/25 05:14:34;;;;;;;2.22;1.10;;;17.20;99.90;;;;;;5094748;28;20024;-76
2022/07/25 05:17:00;;;;;;;2.58;1.52;;;17.30;99.90;;;;;;5076796;28;20024;-75
2022/07/25 05:19:25;;;;;;;1.23;1.13;;;17.40;99.90;;;;;;5095011;28;20464;-74
2022/07/25 05:21:52;;;;;;;2.10;1.77;;;17.40;99.90;;;;;;5094738;28;20072;-72
2022/07/25 05:24:17;;;;;;;1.52;1.42;;;17.50;99.90;;;;;;5076551;28;20028;-75
2022/07/25 05:26:43;;;;;;;3.55;2.05;;;17.60;99.90;;;;;;5094400;28;20165;-75
2022/07/25 05:29:09;;;;;;;2.78;1.48;;;17.70;99.90;;;;;;5094344;28;20434;-74
2022/07/25 05:31:35;;;;;;;14.35;2.40;;;17.70;99.90;;;;;;5076169;28;20539;-75
2022/07/25 05:34:02;;;;;;;2.42;1.60;;;;;;;;;;5094658;28;20026;-74
2022/07/25 05:36:27;;;;;;;2.90;1.33;;;17.90;99.90;;;;;;5076274;28;20043;-75
2022/07/25 05:38:53;;;;;;;1.13;0.88;;;18.00;99.90;;;;;;5094448;28;20063;-75
2022/07/25 05:41:19;;;;;;;1.45;1.35;;;18.10;99.90;;;;;;5076259;28;20437;-75
2022/07/25 05:43:46;;;;;;;0.90;0.90;;;18.20;99.90;;;;;;5094295;28;20031;-76
2022/07/25 05:46:12;;;;;;;2.58;1.75;;;18.50;99.90;;;;;;5076344;28;20086;-75
2022/07/25 05:48:38;;;;;;;8.50;1.48;;;18.50;99.90;;;;;;5094364;28;20085;-75
2022/07/25 05:51:03;;;;;;;2.92;2.13;;;18.70;99.90;;;;;;5094637;28;20427;-75
2022/07/25 05:53:33;;;;;;;3.92;1.55;;;18.80;99.90;;;;;;5094478;28;20032;-75
2022/07/25 05:55:59;;;;;;;1.02;1.00;;;19.00;99.90;;;;;;5076047;28;20051;-74
2022/07/25 05:58:25;;;;;;;13.73;2.20;;;19.10;99.90;;;;;;5094507;28;20063;-76
2022/07/25 06:00:51;;;;;;;1.58;1.48;;;19.30;99.90;;;;;;5076081;28;20020;-75
2022/07/25 06:03:17;;;;;;;2.20;1.30;;;19.40;99.90;;;;;;5094284;28;20016;-74
2022/07/25 06:05:44;;;;;;;3.58;1.40;;;19.70;99.90;;;;;;5093788;28;20380;-75
2022/07/25 06:08:09;;;;;;;2.83;1.05;;;19.80;99.90;;;;;;5075363;28;20028;-75
2022/07/25 06:10:35;;;;;;;1.92;1.50;;;20.00;99.90;;;;;;5093845;28;20376;-74
2022/07/25 06:13:01;;;;;;;1.00;1.00;;;20.10;99.90;;;;;;5092869;28;20361;-74
2022/07/25 06:15:26;;;;;;;2.95;1.60;;;20.20;99.90;;;;;;5093887;28;20381;-75
2022/07/25 06:17:52;;;;;;;2.30;1.83;;;20.30;99.90;;;;;;5093782;28;20445;-78
2022/07/25 06:20:18;;;;;;;1.88;1.30;;;20.50;99.90;;;;;;5093811;28;20017;-78
2022/07/25 06:22:44;;;;;;;1.17;0.95;;;20.70;99.90;;;;;;5093940;28;20376;-79
2022/07/25 06:25:10;;;;;;;1.10;1.10;;;20.90;99.90;;;;;;5075319;28;20031;-79
2022/07/25 06:27:37;;;;;;;2.28;2.17;;;21.10;99.90;;;;;;5093353;28;20032;-76
2022/07/25 06:30:04;;;;;;;1.92;1.67;;;21.20;99.90;;;;;;5093524;28;20107;-80
2022/07/25 06:32:30;;;;;;;0.82;0.82;;;21.30;99.90;;;;;;5093347;28;20024;-74
2022/07/25 06:34:55;;;;;;;0.77;0.70;;;21.50;99.90;;;;;;5093391;28;20024;-75
2022/07/25 06:37:21;;;;;;;3.75;1.10;;;21.60;99.90;;;;;;5093792;28;20384;-75
2022/07/25 06:39:47;;;;;;;0.82;0.80;;;21.70;99.90;;;;;;5093157;28;20450;-75
2022/07/25 06:42:13;;;;;;;1.40;1.23;;;21.80;99.90;;;;;;5093312;28;20020;-75
2022/07/25 06:44:38;;;;;;;1.35;0.98;;;21.90;99.90;;;;;;5075054;28;20035;-75
2022/07/25 06:47:04;;;;;;;1.77;1.67;;;22.10;99.90;;;;;;5093048;28;20016;-75
2022/07/25 06:49:30;;;;;;;2.50;1.25;;;22.20;99.90;;;;;;5075891;28;20051;-80
2022/07/25 06:51:56;;;;;;;1.27;1.13;;;22.50;99.90;;;;;;5075180;28;20174;-82
2022/07/25 06:54:24;;;;;;;2.65;0.98;;;22.90;99.90;;;;;;5093912;28;20085;-81
2022/07/25 06:56:50;;;;;;;3.17;1.33;;;23.60;99.90;;;;;;5095757;28;20043;-81
2022/07/25 06:59:15;;;;;;;2.20;1.60;;;23.70;99.90;;;;;;5075212;28;20066;-80
2022/07/25 07:01:41;;;;;;;1.15;1.13;;;24.90;99.90;;;;;;5075253;28;20028;-79
2022/07/25 07:04:07;;;;;;;1.27;1.02;;;26.10;99.90;;;;;;5074923;28;20020;-79
2022/07/25 07:06:35;;;;;;;1.85;1.58;;;27.40;99.90;;;;;;5074819;28;20101;-81
2022/07/25 07:09:01;;;;;;;1.02;0.93;;;29.10;97.20;;;;;;5074993;28;20039;-80
2022/07/25 07:11:26;;;;;;;4.00;1.35;;;30.50;84.60;;;;;;5074973;28;20069;-80
2022/07/25 07:13:52;;;;;;;0.65;0.65;;;31.70;71.20;;;;;;5093160;28;20024;-81
2022/07/25 07:16:18;;;;;;;1.95;1.52;;;32.30;67.20;;;;;;5075338;28;20534;-80
2022/07/25 07:18:43;;;;;;;5.45;1.13;;;33.50;63.80;;;;;;5075089;28;20028;-80
2022/07/25 07:21:09;;;;;;;1.15;1.05;;;34.20;60.10;;;;;;5092930;28;20035;-78
2022/07/25 07:23:35;;;;;;;1.25;0.73;;;34.80;58.80;;;;;;5076104;28;20027;-78
2022/07/25 07:26:00;;;;;;;0.90;0.90;;;35.40;57.50;;;;;;5096912;28;20039;-79
2022/07/25 07:28:26;;;;;;;1.00;0.90;;;35.60;56.20;;;;;;5096769;28;20032;-78
2022/07/25 07:30:52;;;;;;;1.55;1.33;;;35.90;55.20;;;;;;5096880;28;20035;-78
2022/07/25 07:33:17;;;;;;;0.98;0.90;;;35.50;55.00;;;;;;5097064;28;20028;-78
2022/07/25 07:35:44;;;;;;;1.58;1.33;;;36.00;55.20;;;;;;5096951;28;20059;-78
2022/07/25 07:38:10;;;;;;;1.95;1.08;;;36.00;55.30;;;;;;5096663;28;20028;-78
2022/07/25 07:40:36;;;;;;;1.65;1.55;;;36.60;54.30;;;;;;5078449;28;20027;-78
2022/07/25 07:43:02;;;;;;;1.77;1.40;;;37.00;53.20;;;;;;5096492;28;20028;-78
2022/07/25 07:45:29;;;;;;;1.42;1.33;;;37.00;52.50;;;;;;5078405;28;20027;-78
2022/07/25 07:47:55;;;;;;;1.40;1.00;;;36.60;52.30;;;;;;5096541;28;20028;-81
2022/07/25 07:50:29;;;;;;;5.13;2.13;;;37.00;53.20;;;;;;5096669;28;20016;-80
2022/07/25 07:52:57;;;;;;;3.13;2.40;;;37.10;53.80;;;;;;5093440;28;20115;-77
2022/07/25 07:58:08;;;;;;;1.17;0.80;;;37.00;52.90;;;;;;5096309;28;20031;-78
2022/07/25 08:00:38;;;;;;;0.60;0.60;;;36.80;52.50;;;;;;5096253;28;20104;-79
2022/07/25 08:03:07;;;;;;;1.77;1.33;;;36.80;53.30;;;;;;5078058;28;20433;-79
2022/07/25 08:05:40;;;;;;;12.82;1.92;;;37.10;53.00;;;;;;5078122;28;20060;-78
2022/07/25 08:08:08;;;;;;;1.63;1.30;;;37.40;51.90;;;;;;5078009;28;20064;-79
2022/07/25 08:10:36;;;;;;;1.10;1.10;;;37.60;51.30;;;;;;5096221;28;20094;-79
2022/07/25 08:13:23;;;;;;;0.77;0.68;;;37.60;52.20;;;;;;5096146;28;20370;-79
2022/07/25 08:15:52;;;;;;;0.80;0.80;;;37.60;51.50;;;;;;5077457;28;20047;-79
2022/07/25 08:18:18;;;;;;;;;;;37.20;52.20;;;;;;5078146;28;20031;-80
2022/07/25 08:20:47;;;;;;;1.20;1.20;;;37.00;52.50;;;;;;5077380;28;19904;-79
2022/07/25 08:23:13;;;;;;;2.53;1.27;;;37.20;53.70;;;;;;5095993;28;20028;-80
2022/07/25 08:25:39;;;;;;;2.22;1.10;;;37.40;52.70;;;;;;5077672;28;20395;-77
2022/07/25 08:28:05;;;;;;;2.20;1.25;;;37.90;51.50;;;;;;5095741;28;20070;-77
2022/07/25 08:30:31;;;;;;;1.27;1.20;;;37.60;49.40;;;;;;5095872;28;20044;-75
2022/07/25 08:33:00;;;;;;;1.73;1.10;;;37.40;49.80;;;;;;5077649;28;20024;-77
2022/07/25 08:35:26;;;;;;;1.92;1.08;;;37.50;47.90;;;;;;5076943;28;20073;-78
2022/07/25 08:37:53;;;;;;;1.05;1.05;;;37.20;46.60;;;;;;5077245;28;20484;-78
2022/07/25 08:40:20;;;;;;;0.75;0.73;;;37.20;46.30;;;;;;5077349;28;20043;-77
2022/07/25 08:42:46;;;;;;;1.77;1.27;;;37.60;47.20;;;;;;5095445;28;20086;-76
2022/07/25 08:45:16;;;;;;;2.65;1.13;;;38.00;47.50;;;;;;5095672;28;20023;-78
2022/07/25 08:47:42;;;;;;;1.42;0.60;;;38.50;47.00;;;;;;5095428;28;20028;-77
2022/07/25 08:50:11;;;;;;;0.95;0.90;;;37.90;46.20;;;;;;5077254;28;20024;-76
2022/07/25 08:52:37;;;;;;;;;;;36.70;48.40;;;;;;5095736;28;20047;-76
2022/07/25 08:55:09;;;;;;;2.15;1.05;;;36.70;48.90;;;;;;5095018;28;20330;-78
2022/07/25 08:57:37;;;;;;;0.98;0.90;;;37.20;48.00;;;;;;5077029;28;20031;-78
2022/07/25 09:00:06;;;;;;;1.20;1.05;;;36.80;48.20;;;;;;5076991;28;20016;-78
2022/07/25 09:02:32;;;;;;;0.95;0.95;;;36.30;49.50;;;;;;5076881;28;20044;-77
2022/07/25 09:04:58;;;;;;;2.58;1.27;;;35.60;49.10;;;;;;5095100;28;20020;-79
2022/07/25 09:07:34;;;;;;;0.90;0.90;;;35.50;52.50;;;;;;5095146;28;20043;-75
2022/07/25 09:10:24;;;;;;;1.00;0.63;;;35.40;52.30;;;;;;5094970;28;20034;-77
2022/07/25 09:13:12;;;;;;;1.60;1.25;;;35.60;51.30;;;;;;5076768;28;20039;-77
2022/07/25 09:15:46;;;;;;;0.90;0.90;;;35.70;51.10;;;;;;5094892;28;20099;-78
2022/07/25 09:18:14;;;;;;;1.60;1.02;;;36.00;51.40;;;;;;5076699;28;20016;-78
2022/07/25 09:20:42;;;;;;;1.40;0.70;;;36.30;51.10;;;;;;5076614;28;20030;-79
2022/07/25 09:23:10;;;;;;;17.65;3.47;;;36.10;51.60;;;;;;5076443;28;20254;-76
2022/07/25 09:25:36;;;;;;;1.08;0.95;;;36.10;52.10;;;;;;5076442;28;20553;-77
2022/07/25 09:28:17;;;;;;;2.25;1.52;;;36.40;49.60;;;;;;5076383;28;20086;-78
2022/07/25 09:30:55;;;;;;;0.90;0.52;;;36.50;50.40;;;;;;5076216;28;20020;-78
2022/07/25 09:33:24;;;;;;;2.28;1.02;;;36.50;49.50;;;;;;5094534;28;20028;-77
2022/07/25 09:35:51;;;;;;;1.20;1.00;;;36.40;49.90;;;;;;5094268;28;20020;-78
2022/07/25 09:38:18;;;;;;;2.67;1.45;;;36.00;49.70;;;;;;5076159;28;20047;-77
2022/07/25 09:40:58;;;;;;;0.95;0.57;;;35.90;50.30;;;;;;5094410;28;20060;-76
2022/07/25 09:43:37;;;;;;;1.35;0.95;;;35.50;51.00;;;;;;5094368;28;20580;-75
2022/07/25 09:46:04;;;;;;;4.20;2.00;;;35.80;50.90;;;;;;5094344;28;20131;-76
2022/07/25 09:48:30;;;;;;;1.27;0.77;;;35.80;52.10;;;;;;5075336;28;20569;-81
2022/07/25 09:50:57;;;;;;;0.65;0.52;;;35.60;51.90;;;;;;5094418;28;20476;-80
2022/07/25 09:53:23;;;;;;;0.90;0.90;;;35.20;52.90;;;;;;5076053;28;20059;-80
2022/07/25 09:55:49;;;;;;;1.25;1.05;;;34.60;51.50;;;;;;5075805;28;20088;-76
2022/07/25 09:58:15;;;;;;;1.58;0.52;;;34.80;54.00;;;;;;5093697;28;20059;-75
2022/07/25 10:00:41;;;;;;;1.27;0.95;;;34.90;54.10;;;;;;5093897;28;20039;-76
2022/07/25 10:03:37;;;;;;;0.95;0.95;;;35.40;52.40;;;;;;5094154;28;20024;-76
2022/07/25 10:06:12;;;;;;;1.13;0.65;;;35.70;51.90;;;;;;5075889;28;20023;-79
2022/07/25 10:08:39;;;;;;;1.80;1.35;;;35.40;52.60;;;;;;5075662;28;20047;-78
2022/07/25 10:11:16;;;;;;;0.70;0.70;;;35.40;51.60;;;;;;5093844;28;20024;-79
2022/07/25 10:13:42;;;;;;;2.50;0.95;;;35.00;53.20;;;;;;5075638;28;20055;-80
2022/07/25 10:16:19;;;;;;;0.60;0.60;;;35.10;55.30;;;;;;5093361;28;20496;-76
2022/07/25 10:18:49;;;;;;;0.45;0.45;;;35.10;50.40;;;;;;5075513;28;20028;-80
2022/07/25 10:21:15;;;;;;;0.70;0.70;;;34.40;49.80;;;;;;5093700;28;20070;-80
2022/07/25 10:23:41;;;;;;;2.17;0.88;;;34.30;50.50;;;;;;5093668;28;20020;-78
2022/07/25 10:26:15;;;;;;;1.10;0.57;;;34.40;49.70;;;;;;5075464;28;20024;-79
2022/07/25 10:28:46;;;;;;;0.93;0.90;;;34.30;50.40;;;;;;5093702;28;20024;-78
2022/07/25 10:31:17;;;;;;;2.15;1.15;;;34.30;49.50;;;;;;5093524;28;20020;-77
2022/07/25 10:33:47;;;;;;;0.57;0.57;;;34.00;49.60;;;;;;5093459;28;20047;-79
2022/07/25 10:36:13;;;;;;;1.35;1.25;;;34.00;49.30;;;;;;5093330;28;20031;-79
2022/07/25 10:38:41;;;;;;;0.73;0.57;;;34.00;49.50;;;;;;5075151;28;20024;-81
2022/07/25 10:41:11;;;;;;;0.80;0.80;;;34.30;48.70;;;;;;5093526;28;20020;-78
2022/07/25 10:43:38;;;;;;;1.80;0.60;;;34.30;48.00;;;;;;5093326;28;20111;-79
2022/07/25 10:46:13;;;;;;;0.40;0.40;;;34.40;48.40;;;;;;5075205;28;20016;-80
2022/07/25 10:48:39;;;;;;;0.47;0.47;;;34.20;48.90;;;;;;5093310;28;20036;-78
2022/07/25 10:51:11;;;;;;;0.82;0.57;;;34.30;50.30;;;;;;5093238;28;20020;-79
2022/07/25 10:53:47;;;;;;;1.30;0.90;;;34.70;50.80;;;;;;5093167;28;20496;-80
2022/07/25 10:56:21;;;;;;;1.05;0.90;;;34.60;48.70;;;;;;5093167;28;20063;-79
2022/07/25 10:58:58;;;;;;;0.68;0.68;;;34.70;48.70;;;;;;5092763;28;20038;-77
2022/07/25 11:01:35;;;;;;;0.85;0.85;;;35.40;48.50;;;;;;5096295;28;20074;-79
2022/07/25 11:04:13;;;;;;;0.40;0.40;;;35.50;48.10;;;;;;5098898;28;20023;-76
2022/07/25 11:06:40;;;;;;;1.48;0.73;;;35.80;49.40;;;;;;5096427;28;20016;-76
2022/07/25 11:09:20;;;;;;;1.65;0.60;;;36.60;47.20;;;;;;5092750;28;20082;-77
2022/07/25 11:11:49;;;;;;;2.05;1.25;;;36.20;47.30;;;;;;5092964;28;20020;-76
2022/07/25 11:14:21;;;;;;;3.67;1.33;;;36.30;48.00;;;;;;5075323;28;20024;-76
2022/07/25 11:16:49;;;;;;;0.45;0.45;;;36.30;48.60;;;;;;5076389;28;20031;-77
2022/07/25 11:19:26;;;;;;;0.52;0.52;;;36.60;46.80;;;;;;5094232;28;20099;-78
2022/07/25 11:21:55;;;;;;;2.38;1.70;;;35.20;46.80;;;;;;5092996;28;20031;-77
2022/07/25 11:24:22;;;;;;;0.82;0.82;;;34.50;47.70;;;;;;5075064;28;20024;-79
2022/07/25 11:26:51;;;;;;;1.30;0.95;;;34.30;49.50;;;;;;5074883;28;20039;-79
2022/07/25 11:29:23;;;;;;;0.40;0.40;;;34.80;51.70;;;;;;5074377;28;20039;-80
2022/07/25 11:32:00;;;;;;;0.35;0.32;;;35.30;48.00;;;;;;5074478;28;20477;-79
2022/07/25 11:34:32;;;;;;;0.68;0.47;;;35.70;48.30;;;;;;5092892;28;20028;-78
2022/07/25 11:37:00;;;;;;;0.63;0.50;;;36.20;47.90;;;;;;5092820;28;20016;-78
2022/07/25 11:39:29;;;;;;;0.55;0.55;;;35.60;47.40;;;;;;5074897;28;20024;-79
2022/07/25 11:42:11;;;;;;;1.30;0.93;;;35.70;47.50;;;;;;5074645;28;20040;-81
2022/07/25 11:44:43;;;;;;;0.50;0.40;;;35.90;46.00;;;;;;5074690;28;20077;-79
2022/07/25 11:47:25;;;;;;;2.13;0.60;;;35.80;47.20;;;;;;5074399;28;20023;-79
2022/07/25 11:49:51;;;;;;;0.50;0.50;;;35.40;47.00;;;;;;5092641;28;20028;-79
2022/07/25 11:52:21;;;;;;;1.85;1.30;;;35.80;47.50;;;;;;5074437;28;20024;-77
2022/07/25 11:54:55;;;;;;;0.57;0.57;;;36.10;47.70;;;;;;5092399;28;20182;-76
2022/07/25 11:57:26;;;;;;;0.63;0.63;;;35.40;45.90;;;;;;5092750;28;20028;-78
2022/07/25 11:59:53;;;;;;;1.80;0.80;;;35.00;48.30;;;;;;5092564;28;20032;-78
2022/07/25 12:02:35;;;;;;;0.68;0.68;;;34.00;49.60;;;;;;5074357;28;20031;-79
2022/07/25 12:05:12;;;;;;;1.20;1.20;;;34.10;50.10;;;;;;5073841;28;20449;-79
2022/07/25 12:07:51;;;;;;;8.90;1.10;;;34.00;49.20;;;;;;5091933;28;20031;-80
2022/07/25 12:10:18;;;;;;;8.63;1.42;;;34.30;49.60;;;;;;5074709;28;20020;-81
2022/07/25 12:12:51;;;;;;;1.27;0.77;;;34.60;48.10;;;;;;5077536;28;20388;-77
2022/07/25 12:15:24;;;;;;;0.38;0.20;;;35.40;48.50;;;;;;5095804;28;20024;-79
2022/07/25 12:17:51;;;;;;;0.88;0.60;;;35.40;47.30;;;;;;5095724;28;20020;-80
2022/07/25 12:20:23;;;;;;;0.68;0.68;;;35.10;47.40;;;;;;5095544;28;20484;-80
2022/07/25 12:22:51;;;;;;;0.43;0.43;;;34.90;47.70;;;;;;5096006;28;20027;-79
2022/07/25 12:25:17;;;;;;;1.92;0.50;;;34.40;47.00;;;;;;5077702;28;20532;-78
2022/07/25 12:27:43;;;;;;;0.95;0.52;;;34.10;48.60;;;;;;5077575;28;20127;-76
2022/07/25 12:30:10;;;;;;;0.60;0.60;;;34.60;49.40;;;;;;5095700;28;20020;-76
2022/07/25 12:32:36;;;;;;;0.43;0.43;;;35.10;47.80;;;;;;5077358;28;20480;-76
2022/07/25 12:35:05;;;;;;;0.60;0.60;;;35.90;46.60;;;;;;5095853;28;20032;-78
2022/07/25 12:37:31;;;;;;;0.70;0.70;;;37.00;47.20;;;;;;5098287;28;20296;-78
2022/07/25 12:39:56;;;;;;;1.35;1.25;;;37.60;44.50;;;;;;5098115;28;20047;-79
2022/07/25 12:42:23;;;;;;;0.47;0.47;;;36.90;44.10;;;;;;5095785;28;20468;-79
2022/07/25 12:44:48;;;;;;;2.45;0.70;;;37.10;45.20;;;;;;5095452;28;20506;-79
2022/07/25 12:47:14;;;;;;;0.55;0.55;;;37.80;44.20;;;;;;5095200;28;20027;-78
2022/07/25 12:49:40;;;;;;;0.95;0.52;;;37.70;44.20;;;;;;5095512;28;20101;-76
2022/07/25 12:52:06;;;;;;;1.42;0.95;;;38.10;43.80;;;;;;5096029;28;20024;-79